createdAt,value
2023-04-02T00:00:12.193Z,10.10
2023-04-02T00:03:05.712Z,10.10
2023-04-02T00:05:54.984Z,10.10
2023-04-02T00:08:25.761Z,10.00
2023-04-02T00:11:00.809Z,10.00
2023-04-02T00:13:39.165Z,10.00
2023-04-02T00:16:11.156Z,10.00
2023-04-02T00:18:43.043Z,9.90
2023-04-02T00:21:24.266Z,9.90
2023-04-02T00:23:53.098Z,9.90
2023-04-02T00:26:32.792Z,10.00
2023-04-02T00:29:04.842Z,10.00
2023-04-02T00:31:32.862Z,9.90
2023-04-02T00:34:02.239Z,9.90
2023-04-02T00:36:34.023Z,10.00
2023-04-02T00:39:04.713Z,10.00
2023-04-02T00:41:35.876Z,10.00
2023-04-02T00:44:03.392Z,10.10
2023-04-02T00:46:50.991Z,10.00
2023-04-02T00:49:36.407Z,10.00
2023-04-02T00:52:10.277Z,9.90
2023-04-02T00:55:02.493Z,9.70
2023-04-02T00:57:29.810Z,9.60
2023-04-02T01:00:02.974Z,9.50
2023-04-02T01:02:32.831Z,9.40
2023-04-02T01:05:02.881Z,9.30
2023-04-02T01:07:50.594Z,9.10
2023-04-02T01:10:41.678Z,9.00
2023-04-02T01:13:25.398Z,9.00
2023-04-02T01:16:25.782Z,8.80
2023-04-02T01:19:29.398Z,8.70
2023-04-02T01:22:00.432Z,8.60
2023-04-02T01:24:33.478Z,8.60
2023-04-02T01:27:04.659Z,8.60
2023-04-02T01:29:38.642Z,8.50
2023-04-02T01:32:12.085Z,8.50
2023-04-02T01:34:41.177Z,8.40
2023-04-02T01:37:52.561Z,8.40
2023-04-02T01:40:42.007Z,8.40
2023-04-02T01:43:27.177Z,8.30
2023-04-02T01:45:54.024Z,8.30
2023-04-02T01:48:27.178Z,8.30
2023-04-02T01:50:56.803Z,8.30
2023-04-02T01:53:28.367Z,8.30
2023-04-02T01:55:59.320Z,8.20
2023-04-02T01:58:31.442Z,8.10
2023-04-02T02:01:07.063Z,8.10
2023-04-02T02:03:35.334Z,8.00
2023-04-02T02:06:06.864Z,8.00
2023-04-02T02:08:51.470Z,7.90
2023-04-02T02:11:21.516Z,7.90
2023-04-02T02:13:55.777Z,7.90
2023-04-02T02:16:23.564Z,7.80
2023-04-02T02:18:54.668Z,7.70
2023-04-02T02:21:43.544Z,7.70
2023-04-02T02:24:20.686Z,7.80
2023-04-02T02:26:54.439Z,7.70
2023-04-02T02:29:25.178Z,7.70
2023-04-02T02:31:55.035Z,7.60
2023-04-02T02:34:28.626Z,7.50
2023-04-02T02:37:02.468Z,7.60
2023-04-02T02:39:40.415Z,7.50
2023-04-02T02:42:11.453Z,7.40
2023-04-02T02:44:44.691Z,7.40
2023-04-02T02:47:28.132Z,7.40
2023-04-02T02:50:05.651Z,7.50
2023-04-02T02:52:36.239Z,7.40
2023-04-02T02:55:14.301Z,7.30
2023-04-02T02:58:07.431Z,7.30
2023-04-02T03:00:43.216Z,7.30
2023-04-02T03:03:16.367Z,7.20
2023-04-02T03:05:43.769Z,7.10
2023-04-02T03:08:29.888Z,7.10
2023-04-02T03:11:09.620Z,7.10
2023-04-02T03:13:38.865Z,7.00
2023-04-02T03:16:22.907Z,7.10
2023-04-02T03:19:02.672Z,7.00
2023-04-02T03:21:40.848Z,7.00
2023-04-02T03:24:24.249Z,6.90
2023-04-02T03:27:01.969Z,7.00
2023-04-02T03:29:32.824Z,6.90
2023-04-02T03:32:11.891Z,7.00
2023-04-02T03:34:51.441Z,7.00
2023-04-02T03:37:21.990Z,6.90
2023-04-02T03:39:55.551Z,6.90
2023-04-02T03:42:26.308Z,6.90
2023-04-02T03:45:18.791Z,6.90
2023-04-02T03:48:07.998Z,6.90
2023-04-02T03:50:41.232Z,6.90
2023-04-02T03:53:09.748Z,6.80
2023-04-02T03:55:39.070Z,6.80
2023-04-02T03:58:23.948Z,6.80
2023-04-02T04:01:17.442Z,6.80
2023-04-02T04:03:50.702Z,6.70
2023-04-02T04:06:29.025Z,6.70
2023-04-02T04:09:01.604Z,6.60
2023-04-02T04:11:33.419Z,6.70
2023-04-02T04:14:08.974Z,6.60
2023-04-02T04:16:47.246Z,6.60
2023-04-02T04:19:21.749Z,6.50
2023-04-02T04:21:48.661Z,6.50
2023-04-02T04:24:24.796Z,6.50
2023-04-02T04:27:25.286Z,6.50
2023-04-02T04:30:20.832Z,6.50
2023-04-02T04:32:57.949Z,6.50
2023-04-02T04:35:29.272Z,6.40
2023-04-02T04:38:11.956Z,6.50
2023-04-02T04:40:52.114Z,6.50
2023-04-02T04:43:32.741Z,6.40
2023-04-02T04:46:06.025Z,6.40
2023-04-02T04:49:00.665Z,6.50
2023-04-02T04:51:45.458Z,6.40
2023-04-02T04:54:14.075Z,6.40
2023-04-02T04:56:48.973Z,6.40
2023-04-02T04:59:29.196Z,6.30
2023-04-02T05:02:29.451Z,6.40
2023-04-02T05:04:57.097Z,6.30
2023-04-02T05:07:36.272Z,6.30
2023-04-02T05:10:28.459Z,6.30
2023-04-02T05:13:03.695Z,6.30
2023-04-02T05:15:41.982Z,6.30
2023-04-02T05:18:28.436Z,6.20
2023-04-02T05:20:58.926Z,6.20
2023-04-02T05:23:36.096Z,6.20
2023-04-02T05:26:25.705Z,6.10
2023-04-02T05:29:07.575Z,6.20
2023-04-02T05:31:40.682Z,6.10
2023-04-02T05:34:08.052Z,6.10
2023-04-02T05:36:35.716Z,6.10
2023-04-02T05:39:08.098Z,6.10
2023-04-02T05:41:47.404Z,6.10
2023-04-02T05:44:31.296Z,6.10
2023-04-02T05:47:19.620Z,6.10
2023-04-02T05:50:08.528Z,6.00
2023-04-02T05:52:50.171Z,6.10
2023-04-02T05:55:16.831Z,6.00
2023-04-02T05:58:13.307Z,6.10
2023-04-02T06:00:49.181Z,6.00
2023-04-02T06:03:38.840Z,6.00
2023-04-02T06:06:18.999Z,6.00
2023-04-02T06:08:58.293Z,6.00
2023-04-02T06:11:31.266Z,6.00
2023-04-02T06:13:59.614Z,6.00
2023-04-02T06:16:28.723Z,6.00
2023-04-02T06:18:56.275Z,5.90
2023-04-02T06:21:22.983Z,5.90
2023-04-02T06:23:56.600Z,5.90
2023-04-02T06:26:39.527Z,6.00
2023-04-02T06:29:17.597Z,6.00
2023-04-02T06:31:59.430Z,6.00
2023-04-02T06:34:28.437Z,6.10
2023-04-02T06:37:12.269Z,6.00
2023-04-02T06:39:38.916Z,5.90
2023-04-02T06:42:13.965Z,5.90
2023-04-02T06:44:59.267Z,5.80
2023-04-02T06:47:49.959Z,5.70
2023-04-02T06:50:49.961Z,5.80
2023-04-02T06:53:31.803Z,5.70
2023-04-02T06:56:08.150Z,5.60
2023-04-02T06:58:35.434Z,5.50
2023-04-02T07:01:02.560Z,5.50
2023-04-02T07:03:41.738Z,5.50
2023-04-02T07:06:17.266Z,5.60
2023-04-02T07:08:45.981Z,5.50
2023-04-02T07:11:20.742Z,5.40
2023-04-02T07:13:50.399Z,5.30
2023-04-02T07:16:20.648Z,5.30
2023-04-02T07:18:48.679Z,5.30
2023-04-02T07:21:15.507Z,5.20
2023-04-02T07:23:42.556Z,5.20
2023-04-02T07:26:17.931Z,5.30
2023-04-02T07:28:44.734Z,5.30
2023-04-02T07:31:18.298Z,5.20
2023-04-02T07:33:45.659Z,5.20
2023-04-02T07:36:23.362Z,5.30
2023-04-02T07:38:50.663Z,5.30
2023-04-02T07:41:19.906Z,5.40
2023-04-02T07:43:46.905Z,5.40
2023-04-02T07:46:16.598Z,5.40
2023-04-02T07:48:43.958Z,5.40
2023-04-02T07:51:25.960Z,5.40
2023-04-02T07:53:55.845Z,5.40
2023-04-02T07:56:24.856Z,5.40
2023-04-02T07:58:51.503Z,5.40
2023-04-02T08:01:26.796Z,5.40
2023-04-02T08:03:54.829Z,5.50
2023-04-02T08:06:22.358Z,5.50
2023-04-02T08:08:49.728Z,5.50
2023-04-02T08:11:17.044Z,5.50
2023-04-02T08:13:43.688Z,5.50
2023-04-02T08:16:10.982Z,5.60
2023-04-02T08:18:37.985Z,5.60
2023-04-02T08:21:09.149Z,5.60
2023-04-02T08:23:37.177Z,5.60
2023-04-02T08:26:05.564Z,5.60
2023-04-02T08:28:32.300Z,5.50
2023-04-02T08:30:59.051Z,5.50
2023-04-02T08:33:26.096Z,5.50
2023-04-02T08:35:53.262Z,5.50
2023-04-02T08:38:21.805Z,5.50
2023-04-02T08:40:56.200Z,5.60
2023-04-02T08:44:03.491Z,5.50
2023-04-02T08:46:40.890Z,5.40
2023-04-02T08:49:18.146Z,5.40
2023-04-02T08:51:46.739Z,5.40
2023-04-02T08:54:32.707Z,5.50
2023-04-02T08:57:07.308Z,5.50
2023-04-02T08:59:40.010Z,5.50
2023-04-02T09:02:39.065Z,5.50
2023-04-02T09:05:08.289Z,5.60
2023-04-02T09:07:35.205Z,5.60
2023-04-02T09:10:02.238Z,5.60
2023-04-02T09:12:32.422Z,5.60
2023-04-02T09:15:05.008Z,5.50
2023-04-02T09:17:42.802Z,5.50
2023-04-02T09:20:26.407Z,5.60
2023-04-02T09:22:54.172Z,5.70
2023-04-02T09:25:33.248Z,5.60
2023-04-02T09:28:04.850Z,5.60
2023-04-02T09:30:52.333Z,5.50
2023-04-02T09:33:19.240Z,5.50
2023-04-02T09:35:51.746Z,5.40
2023-04-02T09:38:32.563Z,5.40
2023-04-02T09:41:05.294Z,5.40
2023-04-02T09:43:34.645Z,5.40
2023-04-02T09:46:13.495Z,5.40
2023-04-02T09:48:55.519Z,5.50
2023-04-02T09:51:24.707Z,5.50
2023-04-02T09:54:03.496Z,5.50
2023-04-02T09:56:38.533Z,5.60
2023-04-02T09:59:21.644Z,5.60
2023-04-02T10:02:23.130Z,5.70
2023-04-02T10:04:50.028Z,5.70
2023-04-02T10:07:32.595Z,5.90
2023-04-02T10:10:18.665Z,6.00
2023-04-02T10:13:00.721Z,6.00
2023-04-02T10:15:43.169Z,5.90
2023-04-02T10:18:15.946Z,6.00
2023-04-02T10:20:50.920Z,5.90
2023-04-02T10:23:19.317Z,5.90
2023-04-02T10:25:56.532Z,5.90
2023-04-02T10:29:03.187Z,5.90
2023-04-02T10:31:57.204Z,6.00
2023-04-02T10:34:27.060Z,5.90
2023-04-02T10:37:08.923Z,5.90
2023-04-02T10:39:43.139Z,5.80
2023-04-02T10:42:31.665Z,5.80
2023-04-02T10:45:01.682Z,5.90
2023-04-02T10:47:50.768Z,5.90
2023-04-02T10:50:32.398Z,5.90
2023-04-02T10:53:21.132Z,5.90
2023-04-02T10:56:01.289Z,6.00
2023-04-02T10:58:31.644Z,6.10
2023-04-02T11:01:13.336Z,6.10
2023-04-02T11:03:46.746Z,6.20
2023-04-02T11:06:21.137Z,6.30
2023-04-02T11:08:51.196Z,6.40
2023-04-02T11:11:22.528Z,6.40
2023-04-02T11:13:55.180Z,6.40
2023-04-02T11:16:22.573Z,6.50
2023-04-02T11:19:07.742Z,6.60
2023-04-02T11:21:44.922Z,6.60
2023-04-02T11:24:30.199Z,6.60
2023-04-02T11:27:07.895Z,6.50
2023-04-02T11:29:38.337Z,6.50
2023-04-02T11:32:14.189Z,6.50
2023-04-02T11:34:40.806Z,6.50
2023-04-02T11:37:31.038Z,6.50
2023-04-02T11:39:59.278Z,6.40
2023-04-02T11:42:30.317Z,6.50
2023-04-02T11:45:01.175Z,6.40
2023-04-02T11:47:29.931Z,6.30
2023-04-02T11:50:03.807Z,6.40
2023-04-02T11:52:50.923Z,6.40
2023-04-02T11:55:34.939Z,6.50
2023-04-02T11:58:23.410Z,6.60
2023-04-02T12:01:22.303Z,6.60
2023-04-02T12:04:01.015Z,6.60
2023-04-02T12:07:00.213Z,6.60
2023-04-02T12:09:31.427Z,6.40
2023-04-02T12:12:00.893Z,6.40
2023-04-02T12:14:45.709Z,6.60
2023-04-02T12:17:29.931Z,6.50
2023-04-02T12:20:20.383Z,6.40
2023-04-02T12:22:53.180Z,6.40
2023-04-02T12:25:32.065Z,6.40
2023-04-02T12:28:14.468Z,6.50
2023-04-02T12:30:41.780Z,6.50
2023-04-02T12:33:20.850Z,6.60
2023-04-02T12:35:50.180Z,6.60
2023-04-02T12:38:33.274Z,6.60
2023-04-02T12:41:01.430Z,6.60
2023-04-02T12:43:34.057Z,6.70
2023-04-02T12:46:07.033Z,6.70
2023-04-02T12:48:35.422Z,6.70
2023-04-02T12:51:04.665Z,6.80
2023-04-02T12:53:36.181Z,6.80
2023-04-02T12:56:03.582Z,6.90
2023-04-02T12:58:40.758Z,7.00
2023-04-02T13:01:19.629Z,7.10
2023-04-02T13:04:12.189Z,7.20
2023-04-02T13:06:41.231Z,7.20
2023-04-02T13:09:28.847Z,7.30
2023-04-02T13:11:56.017Z,7.30
2023-04-02T13:14:24.984Z,7.30
2023-04-02T13:16:51.908Z,7.40
2023-04-02T13:19:34.388Z,7.60
2023-04-02T13:22:02.912Z,7.60
2023-04-02T13:24:33.630Z,7.80
2023-04-02T13:27:03.785Z,7.70
2023-04-02T13:29:35.853Z,7.50
2023-04-02T13:32:05.866Z,7.50
2023-04-02T13:34:32.724Z,7.60
2023-04-02T13:36:59.734Z,7.70
2023-04-02T13:39:26.987Z,7.60
2023-04-02T13:42:02.712Z,7.40
2023-04-02T13:44:34.417Z,7.40
2023-04-02T13:47:01.660Z,7.40
2023-04-02T13:49:29.188Z,7.40
2023-04-02T13:51:58.724Z,7.20
2023-04-02T13:54:31.162Z,7.30
2023-04-02T13:56:57.964Z,7.20
2023-04-02T13:59:26.356Z,7.10
2023-04-02T14:01:58.756Z,7.00
2023-04-02T14:04:29.412Z,7.00
2023-04-02T14:07:11.308Z,7.10
2023-04-02T14:09:53.889Z,7.00
2023-04-02T14:12:39.312Z,7.00
2023-04-02T14:15:47.470Z,6.80
2023-04-02T14:18:24.885Z,6.90
2023-04-02T14:21:13.408Z,7.00
2023-04-02T14:24:08.491Z,7.00
2023-04-02T14:26:39.689Z,6.90
2023-04-02T14:29:23.040Z,7.00
2023-04-02T14:32:06.711Z,6.90
2023-04-02T14:35:02.083Z,6.80
2023-04-02T14:37:55.746Z,6.90
2023-04-02T14:40:37.140Z,6.80
2023-04-02T14:43:20.134Z,6.60
2023-04-02T14:46:01.135Z,6.60
2023-04-02T14:48:51.083Z,6.50
2023-04-02T14:51:37.719Z,6.40
2023-04-02T14:54:11.730Z,6.40
2023-04-02T14:56:45.334Z,6.40
2023-04-02T14:59:31.512Z,6.40
2023-04-02T15:02:04.246Z,6.50
2023-04-02T15:04:49.501Z,6.50
2023-04-02T15:07:22.097Z,6.60
2023-04-02T15:10:05.977Z,6.50
2023-04-02T15:12:38.394Z,6.50
2023-04-02T15:15:38.936Z,6.60
2023-04-02T15:18:12.699Z,6.50
2023-04-02T15:20:57.443Z,6.50
2023-04-02T15:23:36.541Z,6.50
2023-04-02T15:26:21.564Z,6.50
2023-04-02T15:29:09.305Z,6.30
2023-04-02T15:31:43.685Z,6.30
2023-04-02T15:34:25.894Z,6.20
2023-04-02T15:36:57.955Z,6.20
2023-04-02T15:39:41.031Z,6.30
2023-04-02T15:42:21.970Z,6.30
2023-04-02T15:45:11.838Z,6.30
2023-04-02T15:48:07.847Z,6.30
2023-04-02T15:50:52.359Z,6.50
2023-04-02T15:53:37.635Z,6.40
2023-04-02T15:56:25.175Z,6.30
2023-04-02T15:59:08.451Z,6.40
2023-04-02T16:01:50.979Z,6.40
2023-04-02T16:04:39.614Z,6.50
2023-04-02T16:07:42.349Z,6.50
2023-04-02T16:10:38.029Z,6.50
2023-04-02T16:13:28.888Z,6.50
2023-04-02T16:16:04.033Z,6.50
2023-04-02T16:18:40.482Z,6.50
2023-04-02T16:21:07.616Z,6.50
2023-04-02T16:23:37.442Z,6.70
2023-04-02T16:26:34.466Z,6.70
2023-04-02T16:29:25.591Z,6.80
2023-04-02T16:32:27.466Z,6.70
2023-04-02T16:35:31.152Z,6.80
2023-04-02T16:38:14.784Z,6.90
2023-04-02T16:41:04.680Z,7.00
2023-04-02T16:43:56.917Z,7.10
2023-04-02T16:49:22.653Z,6.90
2023-04-02T16:52:04.203Z,6.80
2023-04-02T16:54:58.318Z,6.80
2023-04-02T16:57:46.320Z,7.00
2023-04-02T17:00:24.322Z,6.90
2023-04-02T17:03:27.547Z,7.10
2023-04-02T17:06:14.790Z,7.10
2023-04-02T17:08:50.871Z,7.00
2023-04-02T17:11:52.586Z,7.00
2023-04-02T17:14:35.767Z,6.90
2023-04-02T17:17:04.958Z,6.90
2023-04-02T17:19:33.000Z,6.90
2023-04-02T17:22:02.257Z,6.90
2023-04-02T17:24:35.250Z,6.90
2023-04-02T17:27:23.443Z,7.00
2023-04-02T17:29:54.502Z,7.00
2023-04-02T17:32:29.820Z,7.00
2023-04-02T17:34:57.726Z,7.00
2023-04-02T17:37:38.838Z,6.80
2023-04-02T17:40:17.747Z,6.80
2023-04-02T17:43:12.420Z,6.70
2023-04-02T17:45:56.203Z,6.70
2023-04-02T17:48:37.958Z,6.60
2023-04-02T17:51:45.140Z,6.60
2023-04-02T17:54:42.783Z,6.60
2023-04-02T17:57:19.420Z,6.70
2023-04-02T18:00:10.879Z,6.70
2023-04-02T18:03:27.428Z,6.70
2023-04-02T18:06:08.917Z,6.60
2023-04-02T18:08:42.601Z,6.60
2023-04-02T18:11:29.488Z,6.60
2023-04-02T18:14:04.019Z,6.60
2023-04-02T18:17:19.839Z,6.60
2023-04-02T18:20:08.591Z,6.50
2023-04-02T18:22:49.377Z,6.50
2023-04-02T18:25:45.400Z,6.40
2023-04-02T18:28:23.821Z,6.40
2023-04-02T18:30:58.914Z,6.40
2023-04-02T18:33:25.674Z,6.40
2023-04-02T18:36:24.562Z,6.40
2023-04-02T18:39:05.296Z,6.40
2023-04-02T18:41:56.305Z,6.40
2023-04-02T18:44:44.230Z,6.40
2023-04-02T18:47:16.980Z,6.40
2023-04-02T18:49:51.796Z,6.40
2023-04-02T18:52:18.894Z,6.30
2023-04-02T18:54:50.563Z,6.30
2023-04-02T18:57:27.102Z,6.30
2023-04-02T19:00:02.423Z,6.30
2023-04-02T19:02:50.711Z,6.20
2023-04-02T19:05:51.760Z,6.20
2023-04-02T19:08:40.764Z,6.00
2023-04-02T19:11:20.160Z,6.00
2023-04-02T19:13:48.791Z,5.90
2023-04-02T19:19:03.954Z,5.80
2023-04-02T19:21:55.294Z,5.80
2023-04-02T19:24:34.262Z,5.80
2023-04-02T19:27:27.850Z,5.70
2023-04-02T19:30:06.893Z,5.70
2023-04-02T19:32:56.961Z,5.60
2023-04-02T19:35:32.455Z,5.70
2023-04-02T19:38:10.637Z,5.60
2023-04-02T19:41:00.454Z,5.50
2023-04-02T19:43:27.153Z,5.50
2023-04-02T19:45:54.464Z,5.50
2023-04-02T19:48:32.974Z,5.50
2023-04-02T19:50:59.636Z,5.50
2023-04-02T19:53:26.291Z,5.50
2023-04-02T19:55:53.186Z,5.50
2023-04-02T19:58:29.735Z,5.40
2023-04-02T20:00:57.200Z,5.40
2023-04-02T20:03:24.245Z,5.30
2023-04-02T20:05:50.990Z,5.30
2023-04-02T20:08:18.099Z,5.30
2023-04-02T20:10:45.611Z,5.30
2023-04-02T20:13:12.347Z,5.30
2023-04-02T20:15:39.733Z,5.30
2023-04-02T20:18:06.607Z,5.30
2023-04-02T20:20:33.548Z,5.20
2023-04-02T20:23:01.125Z,5.20
2023-04-02T20:25:27.755Z,5.20
2023-04-02T20:27:54.474Z,5.20
2023-04-02T20:30:21.490Z,5.10
2023-04-02T20:32:48.551Z,5.10
2023-04-02T20:35:15.427Z,5.00
2023-04-02T20:37:42.059Z,5.00
2023-04-02T20:40:10.686Z,5.00
2023-04-02T20:42:37.403Z,5.00
2023-04-02T20:45:06.063Z,5.00
2023-04-02T20:47:32.755Z,5.00
2023-04-02T20:49:59.432Z,5.00
2023-04-02T20:52:27.927Z,5.00
2023-04-02T20:54:56.086Z,5.00
2023-04-02T20:57:23.743Z,5.00
2023-04-02T20:59:50.612Z,5.10
2023-04-02T21:02:17.272Z,5.00
2023-04-02T21:04:44.641Z,5.00
2023-04-02T21:07:11.296Z,4.90
2023-04-02T21:09:37.913Z,4.90
2023-04-02T21:12:04.796Z,4.80
2023-04-02T21:14:35.920Z,4.70
2023-04-02T21:17:02.868Z,4.70
2023-04-02T21:19:29.552Z,4.50
2023-04-02T21:21:56.169Z,4.40
2023-04-02T21:24:22.786Z,4.30
2023-04-02T21:26:50.548Z,4.30
2023-04-02T21:29:17.443Z,4.30
2023-04-02T21:31:44.174Z,4.30
2023-04-02T21:34:14.700Z,4.30
2023-04-02T21:36:44.128Z,4.30
2023-04-02T21:39:16.723Z,4.20
2023-04-02T21:41:44.834Z,4.10
2023-04-02T21:44:14.703Z,4.10
2023-04-02T21:46:42.634Z,4.00
2023-04-02T21:49:11.521Z,3.90
2023-04-02T21:51:40.238Z,3.80
2023-04-02T21:54:07.881Z,3.80
2023-04-02T21:56:40.555Z,3.90
2023-04-02T21:59:08.681Z,3.90
2023-04-02T22:01:38.610Z,3.80
2023-04-02T22:04:07.490Z,3.80
2023-04-02T22:06:41.117Z,3.90
2023-04-02T22:09:12.020Z,3.80
2023-04-02T22:11:45.372Z,3.70
2023-04-02T22:14:12.168Z,3.80
2023-04-02T22:16:39.322Z,3.70
2023-04-02T22:19:08.538Z,3.70
2023-04-02T22:21:36.622Z,3.70
2023-04-02T22:24:06.370Z,3.60
2023-04-02T22:26:33.704Z,3.60
2023-04-02T22:29:00.737Z,3.60
2023-04-02T22:31:29.655Z,3.50
2023-04-02T22:33:57.315Z,3.60
2023-04-02T22:36:25.316Z,3.60
2023-04-02T22:38:53.104Z,3.50
2023-04-02T22:41:27.298Z,3.40
2023-04-02T22:43:57.798Z,3.40
2023-04-02T22:46:26.563Z,3.30
2023-04-02T22:48:54.252Z,3.30
2023-04-02T22:51:22.085Z,3.20
2023-04-02T22:53:49.313Z,3.20
2023-04-02T22:56:21.924Z,3.30
2023-04-02T22:58:49.455Z,3.20
2023-04-02T23:01:21.316Z,3.20
2023-04-02T23:03:48.584Z,3.20
2023-04-02T23:06:17.809Z,3.30
2023-04-02T23:08:45.180Z,3.30
2023-04-02T23:11:17.612Z,3.30
2023-04-02T23:13:45.199Z,3.30
2023-04-02T23:16:13.585Z,3.20
2023-04-02T23:18:41.663Z,3.10
2023-04-02T23:21:09.051Z,3.10
2023-04-02T23:23:36.260Z,3.20
2023-04-02T23:26:17.366Z,3.20
2023-04-02T23:28:44.817Z,3.20
2023-04-02T23:31:14.621Z,3.20
2023-04-02T23:33:41.758Z,3.10
2023-04-02T23:36:09.482Z,3.10
2023-04-02T23:38:36.268Z,3.10
2023-04-02T23:41:02.943Z,3.00
2023-04-02T23:43:29.574Z,2.90
2023-04-02T23:45:56.423Z,2.90
2023-04-02T23:48:23.128Z,2.90
2023-04-02T23:50:49.848Z,2.90
2023-04-02T23:53:16.635Z,2.80
2023-04-02T23:55:43.406Z,2.80
2023-04-02T23:58:10.215Z,2.80
